Nearby METAR Reports

 

KMTN - Baltimore/Martin, Maryland, USA
Distance from station: SSE 8mi, 13km
Updated: Thu, 03-Sep-2015 10:45am EDT
Clear
Clear
 Wind from WNW
Wind: WNW 3 mph , 6 km/h
Temperature: 84°F , 29°C
Heat Index: 90°F , 32°C
Dew Point: 73°F , 23°C
Humidity: 70%
Barometer: 29.93 inHg , 1013.5 hPa
Clouds: Clear
Visibility: 10 miles , 16 km
2015/09/03 14:45 KMTN 031445Z 29003KT 10SM SKC 29/23 A2993
KDMH - Baltimore/Dwntwn, Maryland, USA
Distance from station: SW 12mi, 19km
Updated: Thu, 03-Sep-2015 10:54am EDT

 
Temperature: 84°F , 29°C
Heat Index: 87°F , 31°C
Dew Point: 68°F , 20°C
Humidity: 58%
Barometer: 29.92 inHg , 1013.2 hPa
2015/09/03 14:54 KDMH 031454Z AUTO 29/20 A2992 RMK AO1 SLP131 T02940200 50002
 
KBWI - Balto/Wash Intl, Maryland, USA
Distance from station: SSW 20mi, 33km
Updated: Thu, 03-Sep-2015 10:54am EDT
Few Clouds
Few Clouds
 Wind from calm
Wind: Calm
Temperature: 84°F , 29°C
Heat Index: 87°F , 31°C
Dew Point: 68°F , 20°C
Humidity: 58%
Barometer: 29.92 inHg , 1013.2 hPa
Clouds: Few Clouds
Visibility: 10 miles , 16 km
Cloud details: Few Clouds 25000 ft
2015/09/03 14:54 KBWI 031454Z 00000KT 10SM FEW250 29/20 A2992 RMK AO2 SLP130 T02940200 50003
KDMW - Carroll Cnty, Maryland, USA
Distance from station: WNW 30mi, 48km
Updated: Thu, 03-Sep-2015 10:45am EDT
Clear
Clear
 Wind from N
Wind: N 6 mph , 9 km/h
Temperature: 82°F , 28°C
Heat Index: 86°F , 30°C
Dew Point: 72°F , 22°C
Humidity: 70%
Barometer: 29.96 inHg , 1014.6 hPa
Clouds: Clear
Visibility: 10 miles , 16 km
2015/09/03 14:45 KDMW 031445Z AUTO 36005KT 10SM CLR 28/22 A2996 RMK AO2
 
KNAK - Annapolis/Naval, Maryland, USA
Distance from station: S 30mi, 48km
Updated: Thu, 03-Sep-2015 10:54am EDT
Haze, Clear
Haze, Clear
 Wind from NW
Wind: NW 3 mph , 6 km/h
Temperature: 82°F , 28°C
Heat Index: 86°F , 30°C
Dew Point: 72°F , 22°C
Humidity: 70%
Barometer: 29.92 inHg , 1013.2 hPa
Summary: Haze
Clouds: Clear
Visibility: 6 miles , 10 km
2015/09/03 14:54 KNAK 031454Z AUTO 31003KT 6SM HZ CLR 28/22 A2992 RMK AO2 SLP133 T02830217 53002
KW29 - Stevensville, Maryland, USA
Distance from station: SSE 31mi, 50km
Updated: Thu, 03-Sep-2015 10:45am EDT

 Wind from NW
Wind: NW 6 mph , 9 km/h
Temperature: 81°F , 27°C
Heat Index: 84°F , 29°C
Dew Point: 68°F , 20°C
Humidity: 66%
Barometer: 29.92 inHg , 1013.2 hPa
Visibility: 10 miles , 16 km
2015/09/03 14:45 KW29 031445Z AUTO 31005KT 10SM 27/20 A2992 RMK AO1
 
KCGS - College Park, Maryland, USA
Distance from station: SW 38mi, 61km
Updated: Thu, 03-Sep-2015 10:45am EDT
Clear
Clear
 Wind from NNE
Wind: NNE 3 mph , 6 km/h
Temperature: 86°F , 30°C
Heat Index: 89°F , 32°C
Dew Point: 68°F , 20°C
Humidity: 55%
Barometer: 29.92 inHg , 1013.2 hPa
Clouds: Clear
Visibility: 10 miles , 16 km
2015/09/03 14:45 KCGS 031445Z AUTO 02003KT 10SM CLR 30/20 A2992 RMK AO1
KGAI - Gaithersburg, Maryland, USA
Distance from station: WSW 40mi, 65km
Updated: Thu, 03-Sep-2015 10:55am EDT
Clear
Clear
 Wind from WNW
Wind: WNW 8 mph , 13 km/h
Temperature: 84°F , 29°C
Heat Index: 88°F , 31°C
Dew Point: 70°F , 21°C
Humidity: 62%
Barometer: 29.98 inHg , 1015.2 hPa
Clouds: Clear
Visibility: 10 miles , 16 km
2015/09/03 14:55 KGAI 031455Z AUTO 30007KT 10SM CLR 29/21 A2998 RMK AO1 54000
 
KTHV - York, Pennsylvania, USA
Distance from station: NNW 40mi, 65km
Updated: Thu, 03-Sep-2015 10:53am EDT
Clear
Clear
 Wind from varies
Wind: varies 3 mph , 6 km/h
Temperature: 82°F , 28°C
Heat Index: 86°F , 30°C
Dew Point: 70°F , 21°C
Humidity: 66%
Barometer: 29.95 inHg , 1014.2 hPa
Clouds: Clear
Visibility: 8 miles , 13 km
2015/09/03 14:53 KTHV 031453Z AUTO VRB03KT 8SM CLR 28/21 A2995 RMK AO2 SLP139 T02830211 50004
KFDK - Frederick, Maryland, USA
Distance from station: W 47mi, 75km
Updated: Thu, 03-Sep-2015 10:50am EDT
Clear
Clear
 Wind from calm
Wind: Calm
Temperature: 84°F , 29°C
Heat Index: 89°F , 32°C
Dew Point: 72°F , 22°C
Humidity: 66%
Barometer: 29.97 inHg , 1014.9 hPa
Clouds: Clear
Visibility: 10 miles , 16 km
2015/09/03 14:50 KFDK 031450Z 00000KT 10SM SKC 29/22 A2997
 
KESN - Easton/Newnam, Maryland, USA
Distance from station: SSE 48mi, 78km
Updated: Thu, 03-Sep-2015 10:48am EDT
Clear
Clear
 Wind from calm
Wind: Calm
Temperature: 86°F , 30°C
Heat Index: 92°F , 33°C
Dew Point: 72°F , 22°C
Humidity: 62%
Barometer: 29.95 inHg , 1014.2 hPa
Clouds: Clear
Visibility: 7 miles , 11 km
2015/09/03 14:48 KESN 031448Z 00000KT 7SM SKC 30/22 A2995
KDCA - Washington/Natl, Washington D.c., USA
Distance from station: SW 49mi, 79km
Updated: Thu, 03-Sep-2015 10:52am EDT
Few Clouds
Few Clouds
 Wind from NNW
Wind: NNW 6 mph , 9 km/h
Temperature: 86°F , 30°C
Heat Index: 91°F , 33°C
Dew Point: 70°F , 21°C
Humidity: 59%
Barometer: 29.93 inHg , 1013.5 hPa
Clouds: Few Clouds
Visibility: 10 miles , 16 km
Cloud details: Few Clouds 25000 ft
2015/09/03 14:52 KDCA 031452Z 33005KT 10SM FEW250 30/21 A2993 RMK AO2 SLP136 T03000206 50003
 
KLNS - Lancaster, Pennsylvania, USA
Distance from station: N 49mi, 79km
Updated: Thu, 03-Sep-2015 10:53am EDT
Clear
Clear
 Wind from NNW
Wind: NNW 8 mph , 13 km/h
Temperature: 84°F , 29°C
Heat Index: 87°F , 31°C
Dew Point: 68°F , 20°C
Humidity: 58%
Barometer: 29.93 inHg , 1013.5 hPa
Clouds: Clear
Visibility: 7 miles , 11 km
2015/09/03 14:53 KLNS 031453Z 33007KT 7SM CLR 29/20 A2993 RMK AO2 SLP133 T02890200 50001
KILG - Wilmington, Delaware, USA
Distance from station: ENE 50mi, 81km
Updated: Thu, 03-Sep-2015 10:51am EDT
Clear
Clear
 Wind from NNW
Wind: NNW 7 mph , 11 km/h
Temperature: 88°F , 31°C
Heat Index: 91°F , 33°C
Dew Point: 66°F , 19°C
Humidity: 49%
Barometer: 29.92 inHg , 1013.2 hPa
Clouds: Clear
Visibility: 7 miles , 11 km
2015/09/03 14:51 KILG 031451Z 33006KT 7SM CLR 31/19 A2992 RMK AO2 SLP129 T03110194 58000 $